^^
Datos históricos de la estación: Murcia-Puente Tocinos
Diario Informe para Julio 23, 2019 Unidades:  Ambas    Ingés   Métrico
Diario Semanal Mensual Anual
  Máxima: Mínima: Promedio:
Temperatura: 84.9 °F /  29.4 °C 60.1 °F /  15.6 °C 71.8 °F /  22.1 °C
Punto de rocio: 60.6 °F /  15.9 °C 42.1 °F /  5.6 °C 52.9 °F /  11.6 °C
Humedad: 82% 23.9% 57%
Velocidad viento: 11.4mph /  18.4km/h - 4.7mph /  7.6km/h
Racha viento: 22mph /  35.4km/h - -
Viento- - ESE
Presión: 30 in /  1017.0 hPa 29.9 in /  1012.4 hPa -
Precipitación: 0 in /  0.0 mm    
 
 
Tabla de datos para Julio 23, 2019
Hora Temperatura Punto de rocio Presión Viento Velocidad viento Racha viento Humedad Intensidad lluvia(por hora) Nubes
00:04 65.1 °F /  18.4 °C 57.4 °F /  14.1 °C 30in /  1016.8hPa NE 5.9mph /  9.5km/h 9mph /  14.5km/h 76% 0in /  0.0mm
00:09 64.9 °F /  18.3 °C 57.2 °F /  14 °C 30in /  1016.8hPa NE 5.7mph /  9.2km/h 9.2mph /  14.8km/h 76% 0in /  0.0mm
00:14 64.9 °F /  18.3 °C 57.2 °F /  14 °C 30in /  1016.8hPa NE 5.4mph /  8.7km/h 9.2mph /  14.8km/h 76% 0in /  0.0mm
00:19 64.9 °F /  18.3 °C 57.4 °F /  14.1 °C 30in /  1016.8hPa NE 5.4mph /  8.7km/h 9mph /  14.5km/h 76.5% 0in /  0.0mm
00:24 64.8 °F /  18.2 °C 57.4 °F /  14.1 °C 30in /  1016.8hPa NE 5.4mph /  8.7km/h 9mph /  14.5km/h 77% 0in /  0.0mm
00:29 64.8 °F /  18.2 °C 57.4 °F /  14.1 °C 30in /  1016.8hPa NE 5.2mph /  8.3km/h 8mph /  12.9km/h 77% 0in /  0.0mm
00:34 64.8 °F /  18.2 °C 57.4 °F /  14.1 °C 30in /  1016.9hPa NE 4.7mph /  7.6km/h 9.2mph /  14.8km/h 77% 0in /  0.0mm
00:39 64.8 °F /  18.2 °C 57.4 °F /  14.1 °C 30in /  1016.9hPa NE 4.7mph /  7.6km/h 9mph /  14.5km/h 77.3% 0in /  0.0mm
00:44 64.6 °F /  18.1 °C 57.6 °F /  14.2 °C 30in /  1016.9hPa NE 4.7mph /  7.6km/h 8.1mph /  13km/h 78% 0in /  0.0mm
00:49 64.6 °F /  18.1 °C 57.6 °F /  14.2 °C 30in /  1016.9hPa NE 5mph /  8km/h 8.1mph /  13km/h 78% 0in /  0.0mm
00:54 64.6 °F /  18.1 °C 57.7 °F /  14.3 °C 30in /  1016.9hPa NE 5.4mph /  8.7km/h 8mph /  12.9km/h 78.5% 0in /  0.0mm
00:59 64.6 °F /  18.1 °C 57.9 °F /  14.4 °C 30in /  1016.9hPa NE 4.8mph /  7.8km/h 6.9mph /  11.1km/h 79% 0in /  0.0mm
01:04 64.6 °F /  18.1 °C 57.7 °F /  14.3 °C 30in /  1016.9hPa NE 4mph /  6.5km/h 7.4mph /  11.9km/h 79% 0in /  0.0mm
01:09 64.4 °F /  18 °C 57.9 °F /  14.4 °C 30in /  1016.9hPa NE 4mph /  6.5km/h 7mph /  11.3km/h 79.4% 0in /  0.0mm
01:14 64.2 °F /  17.9 °C 57.7 °F /  14.3 °C 30in /  1016.9hPa NE 4mph /  6.5km/h 6.9mph /  11.1km/h 79.2% 0in /  0.0mm
01:19 64 °F /  17.8 °C 57.7 °F /  14.3 °C 30in /  1016.9hPa NNE 3.9mph /  6.2km/h 7mph /  11.3km/h 80% 0in /  0.0mm
01:24 63.9 °F /  17.7 °C 57.7 °F /  14.3 °C 30in /  1016.9hPa NNE 3.6mph /  5.8km/h 6.2mph /  10km/h 80.4% 0in /  0.0mm
01:29 63.7 °F /  17.6 °C 57.6 °F /  14.2 °C 30in /  1016.9hPa NNE 3.7mph /  6km/h 7.4mph /  11.9km/h 81% 0in /  0.0mm
01:34 63.3 °F /  17.4 °C 57.4 °F /  14.1 °C 30in /  1016.9hPa NE 4mph /  6.5km/h 8.5mph /  13.7km/h 81% 0in /  0.0mm
01:39 63.1 °F /  17.3 °C 57.2 °F /  14 °C 30in /  1016.9hPa NE 4.3mph /  6.9km/h 9mph /  14.5km/h 81% 0in /  0.0mm
01:44 63.1 °F /  17.3 °C 57.2 °F /  14 °C 30in /  1016.9hPa NE 4.7mph /  7.6km/h 7mph /  11.3km/h 81% 0in /  0.0mm
01:49 63.1 °F /  17.3 °C 57 °F /  13.9 °C 30in /  1016.9hPa NE 4.5mph /  7.2km/h 6.2mph /  10km/h 80.2% 0in /  0.0mm
01:54 63.1 °F /  17.3 °C 56.8 °F /  13.8 °C 30in /  1016.9hPa NE 4mph /  6.5km/h 6mph /  9.7km/h 80% 0in /  0.0mm
01:59 63.1 °F /  17.3 °C 56.8 °F /  13.8 °C 30in /  1016.9hPa NE 3.7mph /  5.9km/h 5mph /  8km/h 80% 0in /  0.0mm
02:04 63.1 °F /  17.3 °C 56.5 °F /  13.6 °C 30in /  1016.9hPa NE 3.1mph /  5km/h 5mph /  8km/h 79.1% 0in /  0.0mm
02:09 63.1 °F /  17.3 °C 56.3 °F /  13.5 °C 30in /  1016.8hPa NE 2.7mph /  4.3km/h 5mph /  8km/h 78.2% 0in /  0.0mm
02:14 63.1 °F /  17.3 °C 55.9 °F /  13.3 °C 30in /  1016.8hPa NE 2mph /  3.2km/h 5mph /  8km/h 77.5% 0in /  0.0mm
02:19 63.1 °F /  17.3 °C 55.8 °F /  13.2 °C 30in /  1016.8hPa NE 2.2mph /  3.5km/h 5mph /  8km/h 77% 0in /  0.0mm
02:24 63.1 °F /  17.3 °C 55.6 °F /  13.1 °C 30in /  1016.8hPa NE 2.4mph /  3.9km/h 5.8mph /  9.3km/h 76.7% 0in /  0.0mm
02:29 63 °F /  17.2 °C 55.6 °F /  13.1 °C 30in /  1016.8hPa NE 2.5mph /  4.1km/h 6mph /  9.7km/h 76.9% 0in /  0.0mm
02:34 63 °F /  17.2 °C 55.6 °F /  13.1 °C 30in /  1016.9hPa NE 2.9mph /  4.7km/h 3mph /  4.8km/h 77% 0in /  0.0mm
02:39 63 °F /  17.2 °C 55.6 °F /  13.1 °C 30in /  1016.9hPa NE 1.7mph /  2.8km/h   77% 0in /  0.0mm
02:44 63 °F /  17.2 °C 55.6 °F /  13.1 °C 30in /  1016.9hPa Calm   3.5mph /  5.6km/h 77% 0in /  0.0mm
02:49 63 °F /  17.2 °C 55.2 °F /  12.9 °C 30in /  1016.9hPa Calm   3.5mph /  5.6km/h 76% 0in /  0.0mm
02:54 62.8 °F /  17.1 °C 55 °F /  12.8 °C 30in /  1016.9hPa Calm   3.6mph /  5.8km/h 76% 0in /  0.0mm
02:59 62.8 °F /  17.1 °C 55 °F /  12.8 °C 30in /  1016.9hPa NE 0.8mph /  1.3km/h 5.8mph /  9.3km/h 76% 0in /  0.0mm
03:04 62.6 °F /  17 °C 54.9 °F /  12.7 °C 30in /  1016.9hPa NE 2mph /  3.2km/h 6mph /  9.7km/h 76% 0in /  0.0mm
03:09 62.4 °F /  16.9 °C 54.9 °F /  12.7 °C 30in /  1016.9hPa NE 2mph /  3.2km/h 4.6mph /  7.4km/h 76% 0in /  0.0mm
03:14 62.4 °F /  16.9 °C 54.9 °F /  12.7 °C 30in /  1016.9hPa NE 2mph /  3.2km/h 5mph /  8km/h 76% 0in /  0.0mm
03:19 62.4 °F /  16.9 °C 54.9 °F /  12.7 °C 30in /  1016.9hPa NE 1.9mph /  3.1km/h 5mph /  8km/h 76% 0in /  0.0mm
03:24 62.4 °F /  16.9 °C 55 °F /  12.8 °C 30in /  1016.9hPa NE 1.8mph /  2.9km/h   76.6% 0in /  0.0mm
03:29 62.6 °F /  17 °C 55.6 °F /  13.1 °C 30in /  1016.9hPa NE 1.2mph /  1.9km/h 2mph /  3.2km/h 77.7% 0in /  0.0mm
03:34 62.6 °F /  17 °C 55.6 °F /  13.1 °C 30in /  1016.9hPa Calm   2.9mph /  4.7km/h 78% 0in /  0.0mm
03:39 62.8 °F /  17.1 °C 55.8 °F /  13.2 °C 30in /  1016.9hPa NE 0.5mph /  0.8km/h 3mph /  4.8km/h 78% 0in /  0.0mm
03:44 62.6 °F /  17 °C 55.6 °F /  13.1 °C 30in /  1016.9hPa NE 1.4mph /  2.2km/h 2.9mph /  4.7km/h 78% 0in /  0.0mm
03:49 62.4 °F /  16.9 °C 55.6 °F /  13.1 °C 30in /  1016.9hPa NE 0.9mph /  1.4km/h 3mph /  4.8km/h 78% 0in /  0.0mm
03:54 62.4 °F /  16.9 °C 55.6 °F /  13.1 °C 30in /  1016.9hPa Calm   2.4mph /  3.9km/h 78% 0in /  0.0mm
03:59 62.4 °F /  16.9 °C 55.6 °F /  13.1 °C 30in /  1016.9hPa Calm   2.3mph /  3.7km/h 78.3% 0in /  0.0mm
04:04 62.2 °F /  16.8 °C 55.8 °F /  13.2 °C 30in /  1016.9hPa Calm   1mph /  1.6km/h 79.4% 0in /  0.0mm
04:09 62.2 °F /  16.8 °C 55.9 °F /  13.3 °C 30in /  1016.7hPa Calm     80% 0in /  0.0mm
04:14 62.1 °F /  16.7 °C 55.8 °F /  13.2 °C 30in /  1016.7hPa Calm   3.5mph /  5.6km/h 80% 0in /  0.0mm
04:19 62.1 °F /  16.7 °C 56.1 °F /  13.4 °C 30in /  1016.7hPa Calm   3mph /  4.8km/h 80.7% 0in /  0.0mm
04:24 61.9 °F /  16.6 °C 55.9 °F /  13.3 °C 30in /  1016.7hPa Calm   3mph /  4.8km/h 81% 0in /  0.0mm
04:29 61.9 °F /  16.6 °C 55.9 °F /  13.3 °C 30in /  1016.7hPa Calm   3.1mph /  5km/h 81% 0in /  0.0mm
04:34 61.5 °F /  16.4 °C 55.2 °F /  12.9 °C 30in /  1016.7hPa Calm   4.6mph /  7.4km/h 79.8% 0in /  0.0mm
04:39 61.3 °F /  16.3 °C 54.7 °F /  12.6 °C 30in /  1016.6hPa NE 0.7mph /  1.2km/h 5mph /  8km/h 78.5% 0in /  0.0mm
04:44 61.2 °F /  16.2 °C 54.5 °F /  12.5 °C 30in /  1016.6hPa NE 2mph /  3.2km/h 3.5mph /  5.6km/h 78.4% 0in /  0.0mm
04:49 61.2 °F /  16.2 °C 54.1 °F /  12.3 °C 30in /  1016.6hPa NE 1.9mph /  3.1km/h 3.5mph /  5.6km/h 78% 0in /  0.0mm
04:54 61.2 °F /  16.2 °C 54.1 °F /  12.3 °C 30in /  1016.6hPa NE 1.8mph /  2.9km/h 3.6mph /  5.8km/h 78% 0in /  0.0mm
04:59 61.2 °F /  16.2 °C 54.1 °F /  12.3 °C 30in /  1016.6hPa NE 1.8mph /  2.9km/h 4mph /  6.4km/h 78% 0in /  0.0mm
05:04 61 °F /  16.1 °C 54.3 °F /  12.4 °C 30in /  1016.6hPa NE 1.8mph /  2.9km/h 4mph /  6.4km/h 78.5% 0in /  0.0mm
05:09 61 °F /  16.1 °C 54.3 °F /  12.4 °C 30in /  1016.5hPa NE 1.1mph /  1.8km/h 2mph /  3.2km/h 79% 0in /  0.0mm
05:14 61 °F /  16.1 °C 54.3 °F /  12.4 °C 30in /  1016.5hPa Calm     79% 0in /  0.0mm
05:19 61 °F /  16.1 °C 54.3 °F /  12.4 °C 30in /  1016.5hPa Calm     79% 0in /  0.0mm
05:24 61 °F /  16.1 °C 54.3 °F /  12.4 °C 30in /  1016.5hPa Calm     79% 0in /  0.0mm
05:29 61 °F /  16.1 °C 54.3 °F /  12.4 °C 30in /  1016.5hPa Calm     79% 0in /  0.0mm
05:34 61 °F /  16.1 °C 54.3 °F /  12.4 °C 30in /  1016.5hPa Calm     79% 0in /  0.0mm
05:39 61 °F /  16.1 °C 54.3 °F /  12.4 °C 30in /  1016.5hPa Calm     79% 0in /  0.0mm
05:44 60.8 °F /  16 °C 54.3 °F /  12.4 °C 30in /  1016.5hPa Calm     79% 0in /  0.0mm
05:49 60.6 °F /  15.9 °C 54.1 °F /  12.3 °C 30in /  1016.6hPa Calm     79% 0in /  0.0mm
05:54 60.6 °F /  15.9 °C 54.3 °F /  12.4 °C 30in /  1016.6hPa Calm     79.8% 0in /  0.0mm
05:59 60.4 °F /  15.8 °C 54.1 °F /  12.3 °C 30in /  1016.6hPa Calm     80% 0in /  0.0mm
06:04 60.4 °F /  15.8 °C 54.1 °F /  12.3 °C 30in /  1016.6hPa Calm     80% 0in /  0.0mm
06:09 60.3 °F /  15.7 °C 54.1 °F /  12.3 °C 30in /  1016.6hPa Calm     80% 0in /  0.0mm
06:14 60.3 °F /  15.7 °C 54 °F /  12.2 °C 30in /  1016.6hPa Calm     80% 0in /  0.0mm
06:19 60.1 °F /  15.6 °C 54 °F /  12.2 °C 30in /  1016.6hPa Calm     80% 0in /  0.0mm
06:24 60.1 °F /  15.6 °C 54.1 °F /  12.3 °C 30in /  1016.6hPa Calm     80.9% 0in /  0.0mm
06:29 60.1 °F /  15.6 °C 54.1 °F /  12.3 °C 30in /  1016.6hPa Calm     81% 0in /  0.0mm
06:34 60.1 °F /  15.6 °C 54.7 °F /  12.6 °C 30in /  1016.6hPa Calm     81.9% 0in /  0.0mm
06:39 60.3 °F /  15.7 °C 54.7 °F /  12.6 °C 30in /  1016.6hPa Calm     82% 0in /  0.0mm
06:44 60.3 °F /  15.7 °C 54.3 °F /  12.4 °C 30in /  1016.6hPa Calm   4.6mph /  7.4km/h 81% 0in /  0.0mm
06:49 60.3 °F /  15.7 °C 53.2 °F /  11.8 °C 30in /  1016.7hPa SO 0.7mph /  1.2km/h 5.8mph /  9.3km/h 77.8% 0in /  0.0mm
06:54 60.3 °F /  15.7 °C 53.1 °F /  11.7 °C 30in /  1016.7hPa SO 2mph /  3.2km/h 6mph /  9.7km/h 77% 0in /  0.0mm
06:59 60.4 °F /  15.8 °C 53.2 °F /  11.8 °C 30in /  1016.7hPa SO 2.2mph /  3.5km/h 5mph /  8km/h 77% 0in /  0.0mm
07:04 60.4 °F /  15.8 °C 53.2 °F /  11.8 °C 30in /  1016.7hPa Sur 2.4mph /  3.9km/h 5.2mph /  8.4km/h 77% 0in /  0.0mm
07:09 60.3 °F /  15.7 °C 53.1 °F /  11.7 °C 30in /  1016.7hPa Sur 2.7mph /  4.3km/h 5.8mph /  9.3km/h 77% 0in /  0.0mm
07:14 60.3 °F /  15.7 °C 53.4 °F /  11.9 °C 30in /  1016.7hPa SSO 3.1mph /  5km/h 6mph /  9.7km/h 77.8% 0in /  0.0mm
07:19 60.4 °F /  15.8 °C 53.4 °F /  11.9 °C 30in /  1016.7hPa SSO 3.3mph /  5.3km/h 6mph /  9.7km/h 78% 0in /  0.0mm
07:24 60.4 °F /  15.8 °C 53.6 °F /  12 °C 30in /  1016.7hPa Sur 3.6mph /  5.8km/h 5mph /  8km/h 78% 0in /  0.0mm
07:29 60.6 °F /  15.9 °C 53.6 °F /  12 °C 30in /  1016.7hPa SSO 3.3mph /  5.3km/h 5mph /  8km/h 78% 0in /  0.0mm
07:34 60.6 °F /  15.9 °C 53.4 °F /  11.9 °C 30in /  1016.7hPa SSO 2.9mph /  4.7km/h 5mph /  8km/h 77% 0in /  0.0mm
07:39 61 °F /  16.1 °C 53.6 °F /  12 °C 30in /  1016.7hPa SSO 2.9mph /  4.7km/h 5mph /  8km/h 77% 0in /  0.0mm
07:44 61.2 °F /  16.2 °C 53.8 °F /  12.1 °C 30in /  1016.7hPa SSO 2.9mph /  4.7km/h 5mph /  8km/h 77% 0in /  0.0mm
07:49 61.3 °F /  16.3 °C 54 °F /  12.2 °C 30in /  1016.8hPa SSO 2.4mph /  3.8km/h 4mph /  6.4km/h 76.4% 0in /  0.0mm
07:54 61.7 °F /  16.5 °C 54.1 °F /  12.3 °C 30in /  1016.8hPa SSO 1.4mph /  2.2km/h 3.6mph /  5.8km/h 76% 0in /  0.0mm
07:59 61.9 °F /  16.6 °C 54.1 °F /  12.3 °C 30in /  1016.8hPa SO 1.7mph /  2.7km/h 4mph /  6.4km/h 75.7% 0in /  0.0mm
08:04 62.1 °F /  16.7 °C 54.7 °F /  12.6 °C 30in /  1016.8hPa OSO 2mph /  3.2km/h 4mph /  6.4km/h 77% 0in /  0.0mm
08:09 62.2 °F /  16.8 °C 55.6 °F /  13.1 °C 30in /  1016.8hPa OSO 2mph /  3.2km/h 4.6mph /  7.4km/h 78.9% 0in /  0.0mm
08:14 62.4 °F /  16.9 °C 56.1 °F /  13.4 °C 30in /  1016.8hPa Oeste 2mph /  3.2km/h 5mph /  8km/h 79.7% 0in /  0.0mm
08:19 62.4 °F /  16.9 °C 55.8 °F /  13.2 °C 30in /  1016.9hPa Oeste 2mph /  3.2km/h 5mph /  8km/h 79% 0in /  0.0mm
08:24 62.4 °F /  16.9 °C 56.1 °F /  13.4 °C 30in /  1016.9hPa Oeste 2mph /  3.2km/h 5mph /  8km/h 79.5% 0in /  0.0mm
08:29 62.8 °F /  17.1 °C 56.5 °F /  13.6 °C 30in /  1016.9hPa ONO 2.2mph /  3.5km/h 5mph /  8km/h 80% 0in /  0.0mm
08:34 63 °F /  17.2 °C 56.8 °F /  13.8 °C 30in /  1016.9hPa NNO 2.4mph /  3.9km/h 5mph /  8km/h 80.4% 0in /  0.0mm
08:39 63.3 °F /  17.4 °C 56.3 °F /  13.5 °C 30in /  1016.9hPa SSO 2.2mph /  3.5km/h 5.8mph /  9.3km/h 77.9% 0in /  0.0mm
08:44 63.3 °F /  17.4 °C 55.6 °F /  13.1 °C 30in /  1016.9hPa SSE 1.8mph /  2.9km/h 6.9mph /  11.1km/h 76% 0in /  0.0mm
08:49 63.1 °F /  17.3 °C 55.4 °F /  13 °C 30in /  1017.0hPa SSE 2.9mph /  4.6km/h 8.1mph /  13km/h 76% 0in /  0.0mm
08:54 63.1 °F /  17.3 °C 55.8 °F /  13.2 °C 30in /  1017.0hPa SSE 4.7mph /  7.6km/h 8mph /  12.9km/h 77% 0in /  0.0mm
08:59 63.1 °F /  17.3 °C 56.5 °F /  13.6 °C 30in /  1017.0hPa Sur 4.7mph /  7.6km/h 7.4mph /  11.9km/h 78.8% 0in /  0.0mm
09:04 63.3 °F /  17.4 °C 57 °F /  13.9 °C 30in /  1017.0hPa Sur 4.7mph /  7.6km/h 7mph /  11.3km/h 80% 0in /  0.0mm
09:09 63.3 °F /  17.4 °C 57.4 °F /  14.1 °C 30in /  1016.9hPa Sur 4.5mph /  7.3km/h 7mph /  11.3km/h 81% 0in /  0.0mm
09:14 63.7 °F /  17.6 °C 57.6 °F /  14.2 °C 30in /  1016.9hPa SSO 4.3mph /  6.9km/h 6.9mph /  11.1km/h 80.8% 0in /  0.0mm
09:19 63.9 °F /  17.7 °C 57.6 °F /  14.2 °C 30in /  1016.9hPa Sur 4.3mph /  6.9km/h 7.4mph /  11.9km/h 80% 0in /  0.0mm
09:24 64 °F /  17.8 °C 57.6 °F /  14.2 °C 30in /  1016.9hPa SO 4.3mph /  6.9km/h 7mph /  11.3km/h 79.4% 0in /  0.0mm
09:29 64.2 °F /  17.9 °C 57.6 °F /  14.2 °C 30in /  1016.9hPa Sur 4.2mph /  6.8km/h 6.2mph /  10km/h 78.9% 0in /  0.0mm
09:34 64.8 °F /  18.2 °C 57.6 °F /  14.2 °C 30in /  1016.9hPa Sur 4mph /  6.5km/h 6mph /  9.7km/h 78% 0in /  0.0mm
09:39 64.9 °F /  18.3 °C 57.9 °F /  14.4 °C 30in /  1016.9hPa Sur 3.9mph /  6.2km/h 6mph /  9.7km/h 77.7% 0in /  0.0mm
09:44 65.3 °F /  18.5 °C 57.9 °F /  14.4 °C 30in /  1016.9hPa SSO 3.6mph /  5.8km/h 6mph /  9.7km/h 77% 0in /  0.0mm
09:49 65.7 °F /  18.7 °C 58.1 °F /  14.5 °C 30in /  1017.0hPa SSO 3.6mph /  5.8km/h 6mph /  9.7km/h 76.5% 0in /  0.0mm
09:54 66.2 °F /  19 °C 58.1 °F /  14.5 °C 30in /  1017.0hPa SSE 3.6mph /  5.8km/h 6mph /  9.7km/h 75.5% 0in /  0.0mm
09:59 66.7 °F /  19.3 °C 58.1 °F /  14.5 °C 30in /  1017.0hPa SSO 3.3mph /  5.3km/h 5.2mph /  8.4km/h 73.9% 0in /  0.0mm
10:04 67.1 °F /  19.5 °C 57.7 °F /  14.3 °C 30in /  1017.0hPa SSO 2.9mph /  4.7km/h 5mph /  8km/h 72.3% 0in /  0.0mm
10:09 67.6 °F /  19.8 °C 57.9 °F /  14.4 °C 30in /  1016.9hPa SSE 2.5mph /  4km/h 4mph /  6.4km/h 71.4% 0in /  0.0mm
10:14 68.5 °F /  20.3 °C 58.1 °F /  14.5 °C 30in /  1016.9hPa SSE 1.8mph /  2.9km/h 3.6mph /  5.8km/h 69.6% 0in /  0.0mm
10:19 69.3 °F /  20.7 °C 58.1 °F /  14.5 °C 30in /  1016.9hPa SSO 1.7mph /  2.7km/h 4.6mph /  7.4km/h 67.8% 0in /  0.0mm
10:24 69.6 °F /  20.9 °C 57.9 °F /  14.4 °C 30in /  1016.8hPa ONO 1.4mph /  2.2km/h 5mph /  8km/h 66.3% 0in /  0.0mm
10:29 69.8 °F /  21 °C 57.4 °F /  14.1 °C 30in /  1016.8hPa SSO 1.6mph /  2.6km/h 6.4mph /  10.3km/h 64.6% 0in /  0.0mm
10:34 69.8 °F /  21 °C 57 °F /  13.9 °C 30in /  1016.8hPa SO 2mph /  3.2km/h 7mph /  11.3km/h 63.7% 0in /  0.0mm
10:39 70.3 °F /  21.3 °C 57 °F /  13.9 °C 30in /  1016.7hPa SSE 1.9mph /  3.1km/h 5mph /  8km/h 62.8% 0in /  0.0mm
10:44 70.9 °F /  21.6 °C 56.3 °F /  13.5 °C 30in /  1016.7hPa Oeste 1.8mph /  2.9km/h 5mph /  8km/h 60% 0in /  0.0mm
10:49 71.2 °F /  21.8 °C 56.1 °F /  13.4 °C 30in /  1016.7hPa OSO 1.8mph /  2.9km/h 4.7mph /  7.6km/h 59.1% 0in /  0.0mm
10:54 71.6 °F /  22 °C 54.9 °F /  12.7 °C 30in /  1016.6hPa Este 1.8mph /  2.9km/h 5.2mph /  8.4km/h 55.5% 0in /  0.0mm
10:59 72 °F /  22.2 °C 53.6 °F /  12 °C 30in /  1016.6hPa North 2.2mph /  3.6km/h 5mph /  8km/h 52.5% 0in /  0.0mm
11:04 72.3 °F /  22.4 °C 53.6 °F /  12 °C 30in /  1016.6hPa NNE 2.9mph /  4.7km/h 5mph /  8km/h 51.7% 0in /  0.0mm
11:09 73.2 °F /  22.9 °C 54.3 °F /  12.4 °C 30in /  1016.5hPa Este 2.5mph /  4km/h 4.6mph /  7.4km/h 51.7% 0in /  0.0mm
11:14 73.9 °F /  23.3 °C 53.6 °F /  12 °C 30in /  1016.5hPa NE 1.8mph /  2.9km/h 5.9mph /  9.5km/h 49.3% 0in /  0.0mm
11:19 74.1 °F /  23.4 °C 51.8 °F /  11 °C 30in /  1016.5hPa ENE 2.2mph /  3.5km/h 6mph /  9.7km/h 45.7% 0in /  0.0mm
11:24 74.1 °F /  23.4 °C 49.8 °F /  9.9 °C 30in /  1016.5hPa NE 2.9mph /  4.7km/h 6mph /  9.7km/h 42.3% 0in /  0.0mm
11:29 74.3 °F /  23.5 °C 48.6 °F /  9.2 °C 30in /  1016.5hPa NE 2.7mph /  4.3km/h 6mph /  9.7km/h 40.2% 0in /  0.0mm
11:34 74.8 °F /  23.8 °C 49.6 °F /  9.8 °C 30in /  1016.5hPa NE 2.4mph /  3.9km/h 5mph /  8km/h 41.3% 0in /  0.0mm
11:39 75.6 °F /  24.2 °C 50.4 °F /  10.2 °C 30in /  1016.4hPa NE 1.5mph /  2.4km/h 4.7mph /  7.6km/h 41.4% 0in /  0.0mm
11:44 75.9 °F /  24.4 °C 50 °F /  10 °C 30in /  1016.4hPa Calm   5mph /  8km/h 40.1% 0in /  0.0mm
11:49 76.1 °F /  24.5 °C 50 °F /  10 °C 30in /  1016.4hPa SSE 1.1mph /  1.7km/h 5.8mph /  9.3km/h 40% 0in /  0.0mm
11:54 76.5 °F /  24.7 °C 50.2 °F /  10.1 °C 30in /  1016.2hPa North 2.9mph /  4.7km/h 6.2mph /  10km/h 40% 0in /  0.0mm
11:59 76.5 °F /  24.7 °C 50.5 °F /  10.3 °C 30in /  1016.2hPa NE 2.9mph /  4.7km/h 6mph /  9.7km/h 40.3% 0in /  0.0mm
12:04 76.8 °F /  24.9 °C 50.7 °F /  10.4 °C 30in /  1016.2hPa NNE 2.9mph /  4.6km/h 8.5mph /  13.7km/h 40.2% 0in /  0.0mm
12:09 76.8 °F /  24.9 °C 50.5 °F /  10.3 °C 30in /  1016.0hPa ONO 3.2mph /  5.1km/h 9mph /  14.5km/h 39.9% 0in /  0.0mm
12:14 77 °F /  25 °C 51.1 °F /  10.6 °C 30in /  1016.0hPa ENE 3.6mph /  5.8km/h 9.2mph /  14.8km/h 40.4% 0in /  0.0mm
12:19 77.4 °F /  25.2 °C 51.4 °F /  10.8 °C 30in /  1016.0hPa NE 3.7mph /  6km/h 9mph /  14.5km/h 40.4% 0in /  0.0mm
12:24 77.5 °F /  25.3 °C 51.1 °F /  10.6 °C 30in /  1015.8hPa Oeste 4mph /  6.5km/h 9.2mph /  14.8km/h 39.8% 0in /  0.0mm
12:29 77.5 °F /  25.3 °C 50.9 °F /  10.5 °C 30in /  1015.8hPa NE 4.1mph /  6.6km/h 9mph /  14.5km/h 39.3% 0in /  0.0mm
12:34 77.7 °F /  25.4 °C 51.3 °F /  10.7 °C 30in /  1015.8hPa ENE 4.3mph /  6.9km/h 9.2mph /  14.8km/h 39.6% 0in /  0.0mm
12:39 78.3 °F /  25.7 °C 51.4 °F /  10.8 °C 30in /  1015.7hPa North 4.2mph /  6.8km/h 8.5mph /  13.7km/h 39.2% 0in /  0.0mm
12:44 78.6 °F /  25.9 °C 50.7 °F /  10.4 °C 30in /  1015.7hPa ENE 4mph /  6.5km/h 9mph /  14.5km/h 37.9% 0in /  0.0mm
12:49 79.2 °F /  26.2 °C 50.7 °F /  10.4 °C 30in /  1015.7hPa ENE 3.6mph /  5.8km/h 7mph /  11.3km/h 37.1% 0in /  0.0mm
12:54 79.9 °F /  26.6 °C 50.4 °F /  10.2 °C 30in /  1015.5hPa NE 2.9mph /  4.7km/h 6.9mph /  11.1km/h 35.8% 0in /  0.0mm
12:59 80.2 °F /  26.8 °C 49.6 °F /  9.8 °C 30in /  1015.5hPa NO 2.7mph /  4.3km/h 7mph /  11.3km/h 34.4% 0in /  0.0mm
13:04 80.4 °F /  26.9 °C 49.6 °F /  9.8 °C 30in /  1015.5hPa NE 2.4mph /  3.9km/h 10.7mph /  17.2km/h 34.1% 0in /  0.0mm
13:09 80.2 °F /  26.8 °C 49.1 °F /  9.5 °C 30in /  1015.2hPa NNE 3.3mph /  5.3km/h 11mph /  17.7km/h 33.8% 0in /  0.0mm
13:14 80.6 °F /  27 °C 48 °F /  8.9 °C 30in /  1015.2hPa NE 4.7mph /  7.6km/h 10.4mph /  16.7km/h 31.9% 0in /  0.0mm
13:19 80.8 °F /  27.1 °C 47.8 °F /  8.8 °C 30in /  1015.2hPa NE 4.7mph /  7.6km/h 10.4mph /  16.7km/h 31.6% 0in /  0.0mm
13:24 81 °F /  27.2 °C 48 °F /  8.9 °C 30in /  1015.1hPa ENE 4.7mph /  7.6km/h 9.2mph /  14.8km/h 31.7% 0in /  0.0mm
13:29 81.1 °F /  27.3 °C 48 °F /  8.9 °C 30in /  1015.1hPa NE 4.7mph /  7.6km/h 9mph /  14.5km/h 31.5% 0in /  0.0mm
13:34 81.7 °F /  27.6 °C 47.8 °F /  8.8 °C 30in /  1015.1hPa ESE 4.7mph /  7.6km/h 6.9mph /  11.1km/h 30.5% 0in /  0.0mm
13:39 82.2 °F /  27.9 °C 46.9 °F /  8.3 °C 30in /  1015.0hPa SSE 4.3mph /  6.9km/h 7mph /  11.3km/h 29.1% 0in /  0.0mm
13:44 82.8 °F /  28.2 °C 46.9 °F /  8.3 °C 30in /  1015.0hPa Este 3.6mph /  5.8km/h 9.7mph /  15.6km/h 28.8% 0in /  0.0mm
13:49 82.9 °F /  28.3 °C 45.1 °F /  7.3 °C 30in /  1015.0hPa Este 4mph /  6.4km/h 15mph /  24.1km/h 26.5% 0in /  0.0mm
13:54 83.3 °F /  28.5 °C 45 °F /  7.2 °C 30in /  1014.7hPa ESE 4.7mph /  7.6km/h 15mph /  24.1km/h 26.1% 0in /  0.0mm
13:59 83.7 °F /  28.7 °C 44.8 °F /  7.1 °C 30in /  1014.7hPa Este 4.4mph /  7.1km/h 9.2mph /  14.8km/h 25.7% 0in /  0.0mm
14:04 83.8 °F /  28.8 °C 44.8 °F /  7.1 °C 30in /  1014.7hPa Este 4mph /  6.5km/h 12.7mph /  20.4km/h 25.5% 0in /  0.0mm
14:09 84 °F /  28.9 °C 45 °F /  7.2 °C 30in /  1014.6hPa ESE 4.8mph /  7.8km/h 13mph /  20.9km/h 25.5% 0in /  0.0mm
14:14 84.4 °F /  29.1 °C 45.1 °F /  7.3 °C 30in /  1014.6hPa Este 6.4mph /  10.3km/h 13mph /  20.9km/h 25.4% 0in /  0.0mm
14:19 84.2 °F /  29 °C 46.8 °F /  8.2 °C 30in /  1014.6hPa Este 6.4mph /  10.3km/h 15.2mph /  24.5km/h 27.3% 0in /  0.0mm
14:24 83.8 °F /  28.8 °C 48.2 °F /  9 °C 30in /  1014.4hPa Este 6.4mph /  10.3km/h 15.2mph /  24.5km/h 28.9% 0in /  0.0mm
14:29 83.5 °F /  28.6 °C 49.6 °F /  9.8 °C 30in /  1014.4hPa ESE 7.5mph /  12km/h 16.1mph /  25.9km/h 30.8% 0in /  0.0mm
14:34 83.3 °F /  28.5 °C 49.8 °F /  9.9 °C 30in /  1014.4hPa ESE 9.2mph /  14.8km/h 17.5mph /  28.2km/h 31.3% 0in /  0.0mm
14:39 83.3 °F /  28.5 °C 50.2 °F /  10.1 °C 30in /  1014.3hPa ESE 9.8mph /  15.7km/h 17mph /  27.4km/h 31.9% 0in /  0.0mm
14:44 83.7 °F /  28.7 °C 49.8 °F /  9.9 °C 30in /  1014.3hPa ESE 10.7mph /  17.2km/h 16.1mph /  25.9km/h 31.2% 0in /  0.0mm
14:49 83.7 °F /  28.7 °C 50 °F /  10 °C 30in /  1014.3hPa ESE 9.9mph /  16km/h 16.1mph /  25.9km/h 31.4% 0in /  0.0mm
14:54 83.7 °F /  28.7 °C 50 °F /  10 °C 30in /  1014.2hPa ESE 8.7mph /  14km/h 16.1mph /  25.9km/h 31.3% 0in /  0.0mm
14:59 83.8 °F /  28.8 °C 50.4 °F /  10.2 °C 30in /  1014.2hPa ESE 9.3mph /  15km/h 16mph /  25.7km/h 31.5% 0in /  0.0mm
15:04 84.2 °F /  29 °C 51.3 °F /  10.7 °C 30in /  1014.2hPa ESE 10.2mph /  16.4km/h 17.3mph /  27.8km/h 32% 0in /  0.0mm
15:09 84.4 °F /  29.1 °C 51.3 °F /  10.7 °C 29.9in /  1014.1hPa ESE 9.8mph /  15.8km/h 17mph /  27.4km/h 32.1% 0in /  0.0mm
15:14 84.7 °F /  29.3 °C 51.4 °F /  10.8 °C 29.9in /  1014.1hPa ESE 9.2mph /  14.8km/h 15mph /  24.1km/h 31.9% 0in /  0.0mm
15:19 84.7 °F /  29.3 °C 51.3 °F /  10.7 °C 29.9in /  1014.1hPa ESE 8.9mph /  14.4km/h 15mph /  24.1km/h 31.6% 0in /  0.0mm
15:24 84.9 °F /  29.4 °C 52 °F /  11.1 °C 29.9in /  1013.9hPa SE 8.5mph /  13.7km/h 14mph /  22.5km/h 32.2% 0in /  0.0mm
15:29 84.9 °F /  29.4 °C 52.2 °F /  11.2 °C 29.9in /  1013.9hPa SE 8.1mph /  13km/h 15mph /  24.1km/h 32.4% 0in /  0.0mm
15:34 84.6 °F /  29.2 °C 52.2 °F /  11.2 °C 29.9in /  1013.9hPa ESE 7.4mph /  11.9km/h 15mph /  24.1km/h 32.9% 0in /  0.0mm
15:39 84.6 °F /  29.2 °C 52.3 °F /  11.3 °C 29.9in /  1013.9hPa ESE 7.8mph /  12.5km/h 16.1mph /  25.9km/h 33.1% 0in /  0.0mm
15:44 84.4 °F /  29.1 °C 53.1 °F /  11.7 °C 29.9in /  1013.9hPa ESE 8.5mph /  13.7km/h 16.1mph /  25.9km/h 34.1% 0in /  0.0mm
15:49 84.9 °F /  29.4 °C 53.6 °F /  12 °C 29.9in /  1013.9hPa Este 8.6mph /  13.8km/h 15mph /  24.1km/h 34.2% 0in /  0.0mm
15:54 84.9 °F /  29.4 °C 53.4 °F /  11.9 °C 29.9in /  1013.7hPa ESE 8.7mph /  14km/h 18.4mph /  29.6km/h 34% 0in /  0.0mm
15:59 84.4 °F /  29.1 °C 53.1 °F /  11.7 °C 29.9in /  1013.7hPa ESE 9.8mph /  15.7km/h 18.4mph /  29.6km/h 34.3% 0in /  0.0mm
16:04 84.6 °F /  29.2 °C 53.1 °F /  11.7 °C 29.9in /  1013.7hPa ESE 11.2mph /  18km/h 18mph /  29km/h 34% 0in /  0.0mm
16:09 84.7 °F /  29.3 °C 52.7 °F /  11.5 °C 29.9in /  1013.4hPa SE 10.7mph /  17.3km/h 16.8mph /  27km/h 33.3% 0in /  0.0mm
16:14 84.7 °F /  29.3 °C 52.3 °F /  11.3 °C 29.9in /  1013.4hPa ESE 10mph /  16.1km/h 17.3mph /  27.8km/h 32.9% 0in /  0.0mm
16:19 84.6 °F /  29.2 °C 51.8 °F /  11 °C 29.9in /  1013.4hPa ESE 10.1mph /  16.2km/h 18.4mph /  29.6km/h 32.4% 0in /  0.0mm
16:24 84.4 °F /  29.1 °C 51.8 °F /  11 °C 29.9in /  1013.3hPa ESE 10.2mph /  16.4km/h 18mph /  29km/h 32.5% 0in /  0.0mm
16:29 84.7 °F /  29.3 °C 51.6 °F /  10.9 °C 29.9in /  1013.3hPa ESE 10.1mph /  16.3km/h 17.3mph /  27.8km/h 32% 0in /  0.0mm
16:34 84.9 °F /  29.4 °C 51.6 °F /  10.9 °C 29.9in /  1013.3hPa ESE 10mph /  16.1km/h 17.3mph /  27.8km/h 31.9% 0in /  0.0mm
16:39 84.9 °F /  29.4 °C 50.9 °F /  10.5 °C 29.9in /  1013.1hPa ESE 10.3mph /  16.5km/h 18.4mph /  29.6km/h 31% 0in /  0.0mm
16:44 84.7 °F /  29.3 °C 50.9 °F /  10.5 °C 29.9in /  1013.1hPa ESE 10.7mph /  17.2km/h 18.5mph /  29.8km/h 31.2% 0in /  0.0mm
16:49 84.7 °F /  29.3 °C 50.9 °F /  10.5 °C 29.9in /  1013.1hPa SE 10.7mph /  17.2km/h 19mph /  30.6km/h 31% 0in /  0.0mm
16:54 84.7 °F /  29.3 °C 50 °F /  10 °C 29.9in /  1012.9hPa SE 10.7mph /  17.2km/h 18.4mph /  29.6km/h 30% 0in /  0.0mm
16:59 84.6 °F /  29.2 °C 50.5 °F /  10.3 °C 29.9in /  1012.9hPa SE 10.4mph /  16.8km/h 18mph /  29km/h 30.9% 0in /  0.0mm
17:04 84.2 °F /  29 °C 50.2 °F /  10.1 °C 29.9in /  1013.0hPa ESE 10mph /  16.1km/h 17.3mph /  27.8km/h 31% 0in /  0.0mm
17:09 83.8 °F /  28.8 °C 49.6 °F /  9.8 °C 29.9in /  1013.0hPa ESE 9.5mph /  15.3km/h 15.2mph /  24.5km/h 30.6% 0in /  0.0mm
17:14 83.7 °F /  28.7 °C 49.8 °F /  9.9 °C 29.9in /  1013.0hPa ESE 8.7mph /  14km/h 19mph /  30.6km/h 31% 0in /  0.0mm
17:19 83.3 °F /  28.5 °C 49.6 °F /  9.8 °C 29.9in /  1013.1hPa ESE 9.2mph /  14.8km/h 19mph /  30.6km/h 31% 0in /  0.0mm
17:24 83.5 °F /  28.6 °C 49.6 °F /  9.8 °C 29.9in /  1013.1hPa ESE 10mph /  16.1km/h 17.3mph /  27.8km/h 30.9% 0in /  0.0mm
17:29 83.5 °F /  28.6 °C 49.8 °F /  9.9 °C 29.9in /  1013.1hPa ESE 9.9mph /  15.9km/h 19.6mph /  31.5km/h 31% 0in /  0.0mm
17:34 83.3 °F /  28.5 °C 50.4 °F /  10.2 °C 29.9in /  1013.1hPa ESE 9.7mph /  15.6km/h 20mph /  32.2km/h 32% 0in /  0.0mm
17:39 83.3 °F /  28.5 °C 49.6 °F /  9.8 °C 29.9in /  1012.9hPa ESE 9.9mph /  15.9km/h 19mph /  30.6km/h 31.1% 0in /  0.0mm
17:44 83.1 °F /  28.4 °C 48 °F /  8.9 °C 29.9in /  1012.9hPa SE 10.2mph /  16.4km/h 21.5mph /  34.6km/h 29.6% 0in /  0.0mm
17:49 82.9 °F /  28.3 °C 47.3 °F /  8.5 °C 29.9in /  1012.9hPa ESE 10.4mph /  16.7km/h 22mph /  35.4km/h 28.8% 0in /  0.0mm
17:54 82.8 °F /  28.2 °C 46 °F /  7.8 °C 29.9in /  1012.8hPa ESE 10.7mph /  17.2km/h 21.9mph /  35.2km/h 27.6% 0in /  0.0mm
17:59 82.8 °F /  28.2 °C 44.6 °F /  7 °C 29.9in /  1012.8hPa ESE 11mph /  17.7km/h 22mph /  35.4km/h 26.4% 0in /  0.0mm
18:04 82.8 °F /  28.2 °C 42.8 °F /  6 °C 29.9in /  1012.8hPa ESE 11.4mph /  18.4km/h 21mph /  33.8km/h 24.5% 0in /  0.0mm
18:09 82.8 °F /  28.2 °C 42.3 °F /  5.7 °C 29.9in /  1012.7hPa ESE 10.9mph /  17.5km/h 21mph /  33.8km/h 23.9% 0in /  0.0mm
18:14 82.8 °F /  28.2 °C 42.3 °F /  5.7 °C 29.9in /  1012.7hPa ESE 10mph /  16.1km/h 16.3mph /  26.2km/h 23.9% 0in /  0.0mm
18:19 82.8 °F /  28.2 °C 42.3 °F /  5.7 °C 29.9in /  1012.7hPa ESE 9.7mph /  15.6km/h 16.1mph /  25.9km/h 24% 0in /  0.0mm
18:24 82.8 °F /  28.2 °C 42.3 °F /  5.7 °C 29.9in /  1012.7hPa ESE 9.2mph /  14.8km/h 17.3mph /  27.8km/h 24% 0in /  0.0mm
18:29 82.6 °F /  28.1 °C 42.1 °F /  5.6 °C 29.9in /  1012.7hPa ESE 9.8mph /  15.7km/h 17.3mph /  27.8km/h 24% 0in /  0.0mm
18:34 82.6 °F /  28.1 °C 42.1 °F /  5.6 °C 29.9in /  1012.7hPa SE 10.7mph /  17.2km/h 15mph /  24.1km/h 24% 0in /  0.0mm
18:39 82.6 °F /  28.1 °C 42.1 °F /  5.6 °C 29.9in /  1012.7hPa SE 10.1mph /  16.3km/h 15mph /  24.1km/h 24% 0in /  0.0mm
18:44 82.4 °F /  28 °C 42.6 °F /  5.9 °C 29.9in /  1012.7hPa SE 9.2mph /  14.8km/h 15mph /  24.1km/h 24.7% 0in /  0.0mm
18:49 82.4 °F /  28 °C 42.4 °F /  5.8 °C 29.9in /  1012.7hPa ESE 8.8mph /  14.2km/h 14mph /  22.5km/h 24.5% 0in /  0.0mm
18:54 82.4 °F /  28 °C 42.8 °F /  6 °C 29.9in /  1012.6hPa SE 8.1mph /  13km/h 13mph /  20.9km/h 24.7% 0in /  0.0mm
18:59 82.4 °F /  28 °C 42.3 °F /  5.7 °C 29.9in /  1012.6hPa SE 7.5mph /  12km/h 12mph /  19.3km/h 24.2% 0in /  0.0mm
19:04 82.2 °F /  27.9 °C 42.6 °F /  5.9 °C 29.9in /  1012.6hPa SE 6.4mph /  10.3km/h 12mph /  19.3km/h 24.7% 0in /  0.0mm
19:09 82.4 °F /  28 °C 42.4 °F /  5.8 °C 29.9in /  1012.6hPa SE 6mph /  9.7km/h 13.8mph /  22.2km/h 24.5% 0in /  0.0mm
19:14 82 °F /  27.8 °C 42.6 °F /  5.9 °C 29.9in /  1012.6hPa ESE 5.4mph /  8.7km/h 14mph /  22.5km/h 25% 0in /  0.0mm
19:19 82 °F /  27.8 °C 42.6 °F /  5.9 °C 29.9in /  1012.6hPa SE 6mph /  9.6km/h 12mph /  19.3km/h 25% 0in /  0.0mm
19:24 82 °F /  27.8 °C 42.8 °F /  6 °C 29.9in /  1012.5hPa SE 6.9mph /  11.1km/h 13mph /  20.9km/h 25.1% 0in /  0.0mm
19:29 82 °F /  27.8 °C 43.7 °F /  6.5 °C 29.9in /  1012.5hPa SE 6.9mph /  11.1km/h 13mph /  20.9km/h 25.8% 0in /  0.0mm
19:34 82 °F /  27.8 °C 43.7 °F /  6.5 °C 29.9in /  1012.5hPa ESE 6.9mph /  11.1km/h 11.5mph /  18.5km/h 26% 0in /  0.0mm
19:39 81.9 °F /  27.7 °C 43.9 °F /  6.6 °C 29.9in /  1012.4hPa SE 6.6mph /  10.7km/h 12mph /  19.3km/h 26.2% 0in /  0.0mm
19:44 81.7 °F /  27.6 °C 44.2 °F /  6.8 °C 29.9in /  1012.4hPa ESE 6.2mph /  10km/h 9.2mph /  14.8km/h 26.8% 0in /  0.0mm
19:49 81.7 °F /  27.6 °C 44.4 °F /  6.9 °C 29.9in /  1012.5hPa ESE 5.9mph /  9.5km/h 10.4mph /  16.7km/h 27% 0in /  0.0mm
19:54 81.7 °F /  27.6 °C 44.2 °F /  6.8 °C 29.9in /  1012.5hPa ESE 5.4mph /  8.7km/h 10mph /  16.1km/h 26.9% 0in /  0.0mm
19:59 81.7 °F /  27.6 °C 44.2 °F /  6.8 °C 29.9in /  1012.5hPa ESE 5.3mph /  8.6km/h 9mph /  14.5km/h 26.9% 0in /  0.0mm
20:04 81.7 °F /  27.6 °C 44.2 °F /  6.8 °C 29.9in /  1012.5hPa ESE 5.2mph /  8.4km/h 8.1mph /  13km/h 26.8% 0in /  0.0mm
20:09 81.7 °F /  27.6 °C 43.5 °F /  6.4 °C 29.9in /  1012.5hPa ESE 5mph /  8.1km/h 9.7mph /  15.6km/h 26.1% 0in /  0.0mm
20:14 81.7 °F /  27.6 °C 43.3 °F /  6.3 °C 29.9in /  1012.5hPa SE 4.7mph /  7.6km/h 10mph /  16.1km/h 26% 0in /  0.0mm
20:19 81.3 °F /  27.4 °C 43.3 °F /  6.3 °C 29.9in /  1012.6hPa SE 5mph /  8km/h 9.2mph /  14.8km/h 26.1% 0in /  0.0mm
20:24 81.1 °F /  27.3 °C 44.1 °F /  6.7 °C 29.9in /  1012.6hPa ESE 5.4mph /  8.7km/h 9mph /  14.5km/h 27% 0in /  0.0mm
20:29 81 °F /  27.2 °C 44.6 °F /  7 °C 29.9in /  1012.6hPa ESE 5.3mph /  8.6km/h 8.1mph /  13km/h 27.9% 0in /  0.0mm
20:34 80.4 °F /  26.9 °C 44.4 °F /  6.9 °C 29.9in /  1012.6hPa ESE 5.2mph /  8.4km/h 8mph /  12.9km/h 28.1% 0in /  0.0mm
20:39 80.2 °F /  26.8 °C 45 °F /  7.2 °C 29.9in /  1012.4hPa ESE 4.8mph /  7.8km/h 9.2mph /  14.8km/h 29% 0in /  0.0mm
20:44 79.9 °F /  26.6 °C 45 °F /  7.2 °C 29.9in /  1012.4hPa ESE 4.3mph /  6.9km/h 9.2mph /  14.8km/h 29.3% 0in /  0.0mm
20:49 79.3 °F /  26.3 °C 45.3 °F /  7.4 °C 29.9in /  1012.6hPa Este 4.3mph /  6.9km/h 8.1mph /  13km/h 30% 0in /  0.0mm
20:54 79.2 °F /  26.2 °C 45.1 °F /  7.3 °C 29.9in /  1012.6hPa ENE 4.3mph /  6.9km/h 8mph /  12.9km/h 30.2% 0in /  0.0mm
20:59 78.6 °F /  25.9 °C 45.9 °F /  7.7 °C 29.9in /  1012.6hPa NE 4.5mph /  7.2km/h 8.5mph /  13.7km/h 31.4% 0in /  0.0mm
21:04 78.3 °F /  25.7 °C 50.4 °F /  10.2 °C 29.9in /  1012.7hPa NNE 4.7mph /  7.6km/h 11.5mph /  18.5km/h 38% 0in /  0.0mm
21:09 77.2 °F /  25.1 °C 54.7 °F /  12.6 °C 29.9in /  1012.7hPa NNE 5.7mph /  9.1km/h 12mph /  19.3km/h 46% 0in /  0.0mm
21:14 76.1 °F /  24.5 °C 55.8 °F /  13.2 °C 29.9in /  1012.7hPa NE 7.4mph /  11.9km/h 11.5mph /  18.5km/h 49.2% 0in /  0.0mm
21:19 75.6 °F /  24.2 °C 55.6 °F /  13.1 °C 29.9in /  1012.8hPa NE 7mph /  11.3km/h 12mph /  19.3km/h 50.2% 0in /  0.0mm
21:24 75.2 °F /  24 °C 54.1 °F /  12.3 °C 29.9in /  1012.8hPa NE 6.4mph /  10.3km/h 12.7mph /  20.4km/h 48.1% 0in /  0.0mm
21:29 74.8 °F /  23.8 °C 55.8 °F /  13.2 °C 29.9in /  1012.8hPa NNE 6.4mph /  10.3km/h 13mph /  20.9km/h 51.4% 0in /  0.0mm
21:34 74.7 °F /  23.7 °C 54 °F /  12.2 °C 29.9in /  1013.0hPa NNE 6.4mph /  10.3km/h 9mph /  14.5km/h 48.6% 0in /  0.0mm
21:39 74.3 °F /  23.5 °C 57.6 °F /  14.2 °C 29.9in /  1013.0hPa NNE 6.3mph /  10.2km/h 14mph /  22.5km/h 56% 0in /  0.0mm
21:44 73.4 °F /  23 °C 58.3 °F /  14.6 °C 29.9in /  1013.0hPa NNE 6.2mph /  10km/h 14mph /  22.5km/h 59.2% 0in /  0.0mm
21:49 72.7 °F /  22.6 °C 58.1 °F /  14.5 °C 29.9in /  1013.0hPa NE 6.9mph /  11.1km/h 13.8mph /  22.2km/h 60% 0in /  0.0mm
21:54 72.3 °F /  22.4 °C 58.1 °F /  14.5 °C 29.9in /  1013.0hPa NE 8.1mph /  13km/h 14mph /  22.5km/h 61% 0in /  0.0mm
21:59 72.1 °F /  22.3 °C 58.6 °F /  14.8 °C 29.9in /  1013.0hPa NE 7.8mph /  12.6km/h 14mph /  22.5km/h 62.6% 0in /  0.0mm
22:04 71.8 °F /  22.1 °C 59 °F /  15 °C 29.9in /  1013.0hPa NNE 7.4mph /  11.9km/h 13.5mph /  21.7km/h 64.3% 0in /  0.0mm
22:09 71.2 °F /  21.8 °C 59.2 °F /  15.1 °C 29.9in /  1012.9hPa NE 7.8mph /  12.5km/h 14mph /  22.5km/h 65.9% 0in /  0.0mm
22:14 70.9 °F /  21.6 °C 59.4 °F /  15.2 °C 29.9in /  1012.9hPa NNE 8.5mph /  13.7km/h 14mph /  22.5km/h 67% 0in /  0.0mm
22:19 70.3 °F /  21.3 °C 59.5 °F /  15.3 °C 29.9in /  1013.0hPa NE 8.8mph /  14.1km/h 14mph /  22.5km/h 68.6% 0in /  0.0mm
22:24 70.2 °F /  21.2 °C 59.9 °F /  15.5 °C 29.9in /  1013.0hPa NNE 9.2mph /  14.8km/h 14mph /  22.5km/h 70.1% 0in /  0.0mm
22:29 69.8 °F /  21 °C 60.1 °F /  15.6 °C 29.9in /  1013.0hPa NNE 8.8mph /  14.1km/h 13.8mph /  22.2km/h 71.5% 0in /  0.0mm
22:34 69.4 °F /  20.8 °C 60.3 °F /  15.7 °C 29.9in /  1013.2hPa NNE 8.1mph /  13km/h 14mph /  22.5km/h 72.7% 0in /  0.0mm
22:39 69.3 °F /  20.7 °C 60.3 °F /  15.7 °C 29.9in /  1013.2hPa NE 8.5mph /  13.7km/h 16.1mph /  25.9km/h 73% 0in /  0.0mm
22:44 69.3 °F /  20.7 °C 60.1 °F /  15.6 °C 29.9in /  1013.2hPa NE 9.2mph /  14.8km/h 16mph /  25.7km/h 73% 0in /  0.0mm
22:49 69.1 °F /  20.6 °C 60.3 °F /  15.7 °C 29.9in /  1013.4hPa NE 8.5mph /  13.7km/h 14mph /  22.5km/h 73.4% 0in /  0.0mm
22:54 68.9 °F /  20.5 °C 60.3 °F /  15.7 °C 29.9in /  1013.4hPa NE 7.4mph /  11.9km/h 11mph /  17.7km/h 74% 0in /  0.0mm
22:59 68.7 °F /  20.4 °C 60.1 °F /  15.6 °C 29.9in /  1013.4hPa NNE 7.2mph /  11.6km/h 11mph /  17.7km/h 74% 0in /  0.0mm
23:04 68.5 °F /  20.3 °C 59.9 °F /  15.5 °C 29.9in /  1013.4hPa NE 6.9mph /  11.1km/h 10.7mph /  17.2km/h 74% 0in /  0.0mm
23:09 68.4 °F /  20.2 °C 59.7 °F /  15.4 °C 29.9in /  1013.4hPa NE 6.6mph /  10.7km/h 11mph /  17.7km/h 74% 0in /  0.0mm
23:14 68.4 °F /  20.2 °C 59.7 °F /  15.4 °C 29.9in /  1013.4hPa NE 6.2mph /  10km/h 10mph /  16.1km/h 74% 0in /  0.0mm
23:19 68.2 °F /  20.1 °C 59.5 °F /  15.3 °C 29.9in /  1013.4hPa NNE 6.5mph /  10.4km/h 12.7mph /  20.4km/h 74.1% 0in /  0.0mm
23:24 67.8 °F /  19.9 °C 59.4 °F /  15.2 °C 29.9in /  1013.4hPa NNE 6.9mph /  11.1km/h 13mph /  20.9km/h 74.4% 0in /  0.0mm
23:29 67.6 °F /  19.8 °C 59.5 °F /  15.3 °C 29.9in /  1013.4hPa NNE 6.9mph /  11.1km/h 13mph /  20.9km/h 75% 0in /  0.0mm
23:34 67.6 °F /  19.8 °C 59.7 °F /  15.4 °C 29.9in /  1013.7hPa NNE 6.9mph /  11.1km/h 11mph /  17.7km/h 75.9% 0in /  0.0mm
23:39 67.6 °F /  19.8 °C 59.9 °F /  15.5 °C 29.9in /  1013.7hPa NNE 6.6mph /  10.7km/h 11.5mph /  18.5km/h 76.2% 0in /  0.0mm
23:44 67.6 °F /  19.8 °C 60.3 °F /  15.7 °C 29.9in /  1013.7hPa NNE 6.2mph /  10km/h 12mph /  19.3km/h 77% 0in /  0.0mm
23:49 67.6 °F /  19.8 °C 60.3 °F /  15.7 °C 29.9in /  1013.7hPa NE 6.3mph /  10.1km/h 10.4mph /  16.7km/h 77.3% 0in /  0.0mm
23:54 67.6 °F /  19.8 °C 60.4 °F /  15.8 °C 29.9in /  1013.6hPa NE 6.4mph /  10.3km/h 10.7mph /  17.2km/h 78% 0in /  0.0mm
23:59 67.5 °F /  19.7 °C 60.6 °F /  15.9 °C 29.9in /  1013.6hPa NNE 6.2mph /  10km/h 11mph /  17.7km/h 78.9% 0in /  0.0mm
Murcia-Puente Tocinos, España
Compliments of Weather Underground - 3 mb

La estación de MeteoMurcia.com, publica sus datos en los siguientes proyectos:

Weather Underground PWS IMURCIAP2 Meteoclimatic www.awekas.at

W3Counter
Web Analytics